Time;durP1;ratioP1;P1;durP2;ratioP2;P2;SDS_P1;SDS_P2;PMS_P1;PMS_P2;Temp;Humidity;BMP_temperature;BMP_pressure;BME280_temperature;BME280_humidity;BME280_pressure;Samples;Min_cycle;Max_cycle;Signal;HPM_P1;HPM_P2
2021/11/22 00:00:26;;;;;;;4.22;0.63;;;;;;;4.59;100.00;101565.03;6225836;28;20527;-77
2021/11/22 00:03:29;;;;;;;0.50;0.45;;;;;;;4.63;100.00;101561.47;6226549;28;20053;-77
2021/11/22 00:06:30;;;;;;;1.52;0.90;;;;;;;4.68;100.00;101562.28;6225646;28;20061;-77
2021/11/22 00:09:33;;;;;;;1.63;0.77;;;;;;;4.70;100.00;101565.72;6225572;28;20050;-77
2021/11/22 00:12:36;;;;;;;1.58;1.10;;;;;;;4.65;100.00;101567.53;6225406;28;20519;-77
2021/11/22 00:15:38;;;;;;;0.98;0.65;;;;;;;4.69;100.00;101576.16;6225418;28;20049;-77
2021/11/22 00:18:39;;;;;;;1.25;1.00;;;;;;;4.73;100.00;101581.31;6224838;28;20049;-77
2021/11/22 00:21:40;;;;;;;1.73;0.95;;;;;;;4.75;100.00;101583.88;6225006;28;20065;-79
2021/11/22 00:24:42;;;;;;;1.75;0.82;;;;;;;4.78;100.00;101582.09;6223899;28;20046;-77
2021/11/22 00:27:46;;;;;;;2.60;1.02;;;;;;;4.79;100.00;101585.53;6221511;28;20133;-77
2021/11/22 00:30:48;;;;;;;2.00;0.90;;;;;;;4.80;100.00;101587.25;6216134;28;20057;-78
2021/11/22 00:33:51;;;;;;;5.05;0.70;;;;;;;4.75;100.00;101595.13;6222580;28;20054;-78
2021/11/22 00:36:52;;;;;;;0.40;0.40;;;;;;;4.76;100.00;101604.66;6224637;28;20077;-79
2021/11/22 00:39:53;;;;;;;0.60;0.52;;;;;;;4.73;100.00;101620.34;6223097;28;20046;-77
2021/11/22 00:42:56;;;;;;;1.10;0.90;;;;;;;4.73;100.00;101625.56;6200269;28;20050;-77
2021/11/22 00:45:57;;;;;;;0.65;0.50;;;;;;;4.73;100.00;101624.72;6200008;28;20054;-77
2021/11/22 00:48:59;;;;;;;0.80;0.80;;;;;;;4.72;100.00;101625.56;6200321;28;20050;-77
2021/11/22 00:52:00;;;;;;;4.00;1.15;;;;;;;4.70;100.00;101632.56;6200001;28;20546;-77
2021/11/22 00:55:01;;;;;;;0.75;0.57;;;;;;;4.65;100.00;101635.22;6202068;28;20057;-77
2021/11/22 00:58:04;;;;;;;2.20;0.70;;;;;;;4.64;100.00;101641.31;6210917;28;20054;-78
2021/11/22 01:01:05;;;;;;;0.98;0.60;;;;;;;4.65;100.00;101655.19;6210424;28;20053;-77
2021/11/22 01:04:07;;;;;;;1.27;0.82;;;;;;;4.67;100.00;101653.41;6210288;28;20053;-77
2021/11/22 01:07:08;;;;;;;1.13;0.88;;;;;;;4.63;100.00;101657.81;6200823;28;20061;-77
2021/11/22 01:10:10;;;;;;;1.70;0.70;;;;;;;4.64;100.00;101661.28;6199185;28;20498;-77
2021/11/22 01:13:13;;;;;;;2.47;0.82;;;;;;;4.61;100.00;101666.53;6199326;28;20486;-77
2021/11/22 01:16:14;;;;;;;2.58;0.80;;;;;;;4.61;100.00;101663.94;6199516;28;20050;-77
2021/11/22 01:19:17;;;;;;;1.50;0.95;;;;;;;4.55;100.00;101672.69;6199183;28;20050;-77
2021/11/22 01:22:19;;;;;;;1.67;1.10;;;;;;;4.53;100.00;101680.50;6199161;28;20058;-77
2021/11/22 01:25:21;;;;;;;1.35;0.90;;;;;;;4.49;100.00;101686.63;6198967;28;20494;-77
2021/11/22 01:28:24;;;;;;;1.90;0.68;;;;;;;4.50;100.00;101692.72;6208808;28;20049;-77
2021/11/22 01:31:25;;;;;;;1.27;0.75;;;;;;;4.48;100.00;101703.13;6223084;28;20080;-77
2021/11/22 01:34:28;;;;;;;0.88;0.63;;;;;;;4.43;100.00;101709.28;6223431;28;20050;-77
2021/11/22 01:37:30;;;;;;;1.08;0.80;;;;;;;4.33;100.00;101709.38;6222934;28;20054;-77
2021/11/22 01:40:31;;;;;;;0.95;0.70;;;;;;;4.25;100.00;101712.97;6222918;28;20445;-77
2021/11/22 01:43:34;;;;;;;0.65;0.65;;;;;;;4.19;100.00;101710.44;6223094;28;20050;-77
2021/11/22 01:46:36;;;;;;;2.08;0.73;;;;;;;4.08;100.00;101720.94;6222874;28;20042;-77
2021/11/22 01:49:37;;;;;;;0.90;0.73;;;;;;;3.98;100.00;101727.97;6222774;28;20070;-77
2021/11/22 01:52:39;;;;;;;1.98;0.75;;;;;;;3.95;100.00;101730.63;6222550;28;20057;-77
2021/11/22 01:55:40;;;;;;;1.05;0.60;;;;;;;3.89;100.00;101735.88;6222917;28;20511;-77
2021/11/22 01:58:43;;;;;;;0.65;0.60;;;;;;;3.79;100.00;101737.72;6221685;28;20058;-77
2021/11/22 02:01:46;;;;;;;1.95;0.63;;;;;;;3.73;100.00;101742.13;6222481;28;20053;-77
2021/11/22 02:04:47;;;;;;;0.55;0.55;;;;;;;3.70;100.00;101742.13;6222611;28;20049;-77
2021/11/22 02:07:49;;;;;;;0.60;0.50;;;;;;;3.67;100.00;101750.81;6222712;28;20049;-77
2021/11/22 02:10:52;;;;;;;0.80;0.52;;;;;;;3.66;100.00;101754.28;6222432;28;20056;-76
2021/11/22 02:13:54;;;;;;;0.47;0.47;;;;;;;3.60;100.00;101756.09;6222808;28;20049;-77
2021/11/22 02:16:56;;;;;;;1.10;0.50;;;;;;;3.60;100.00;101756.94;6222319;28;20054;-77
2021/11/22 02:20:02;;;;;;;1.08;0.50;;;;;;;3.59;100.00;101763.03;6221933;28;20057;-77
2021/11/22 02:23:07;;;;;;;5.72;0.50;;;;;;;3.56;100.00;101770.84;6222526;28;20045;-77
2021/11/22 02:26:08;;;;;;;1.30;0.70;;;;;;;3.50;100.00;101779.56;6221373;28;20057;-76
2021/11/22 02:29:10;;;;;;;2.88;1.00;;;;;;;3.42;100.00;101790.88;6214177;28;20046;-77
2021/11/22 02:32:11;;;;;;;0.68;0.60;;;;;;;3.38;100.00;101795.22;6220667;28;20050;-77
2021/11/22 02:35:16;;;;;;;0.57;0.40;;;;;;;3.31;100.00;101789.19;6222395;28;20052;-77
2021/11/22 02:38:18;;;;;;;0.95;0.68;;;;;;;3.30;100.00;101799.59;6221371;28;20428;-76
2021/11/22 02:41:19;;;;;;;1.23;0.77;;;;;;;3.22;100.00;101801.38;6221388;28;20053;-77
2021/11/22 02:44:21;;;;;;;1.25;0.50;;;;;;;3.17;100.00;101811.78;6213650;28;20045;-77
2021/11/22 02:47:23;;;;;;;0.30;0.28;;;;;;;3.17;100.00;101803.16;6197890;28;20054;-77
2021/11/22 02:50:26;;;;;;;0.57;0.57;;;;;;;3.17;100.00;101809.19;6197303;28;20494;-77
2021/11/22 02:53:28;;;;;;;0.47;0.47;;;;;;;3.09;100.00;101816.19;6197815;28;20050;-77
2021/11/22 02:56:31;;;;;;;1.25;0.73;;;;;;;3.12;100.00;101820.50;6198086;28;20417;-77
2021/11/22 02:59:33;;;;;;;0.40;0.40;;;;;;;3.06;100.00;101816.19;6221425;28;20065;-77
2021/11/22 03:02:34;;;;;;;2.80;0.50;;;;;;;3.05;100.00;101825.72;6226340;28;20068;-77
2021/11/22 03:05:37;;;;;;;0.55;0.52;;;;;;;3.03;100.00;101826.59;6226436;28;20046;-77
2021/11/22 03:08:39;;;;;;;0.95;0.38;;;;;;;2.97;100.00;101819.69;6226381;28;20050;-77
2021/11/22 03:11:40;;;;;;;0.30;0.30;;;;;;;2.98;100.00;101824.00;6225732;28;20050;-77
2021/11/22 03:14:42;;;;;;;0.57;0.50;;;;;;;2.95;100.00;101831.84;6226343;28;20058;-77
2021/11/22 03:17:45;;;;;;;0.30;0.30;;;;;;;2.92;100.00;101836.19;6226267;28;20050;-77
2021/11/22 03:20:47;;;;;;;0.22;0.22;;;;;;;2.91;100.00;101844.84;6225755;28;20418;-77
2021/11/22 03:23:49;;;;;;;4.07;0.43;;;;;;;2.83;100.00;101844.84;6225991;28;20045;-77
2021/11/22 03:26:50;;;;;;;0.98;0.50;;;;;;;2.85;100.00;101847.44;6222778;28;20046;-77
2021/11/22 03:29:52;;;;;;;0.70;0.40;;;;;;;2.82;100.00;101853.53;6225600;28;20497;-77
2021/11/22 03:32:53;;;;;;;0.57;0.50;;;;;;;2.82;100.00;101861.31;6226101;28;20056;-77
2021/11/22 03:35:56;;;;;;;0.63;0.50;;;;;;;2.82;100.00;101870.81;6225505;28;20046;-77
2021/11/22 03:38:59;;;;;;;0.65;0.55;;;;;;;2.72;100.00;101873.44;6225834;28;20420;-77
2021/11/22 03:42:03;;;;;;;0.70;0.70;;;;;;;2.68;100.00;101876.94;6225461;28;20045;-76
2021/11/22 03:45:06;;;;;;;0.38;0.35;;;;;;;2.67;100.00;101882.97;6225525;28;20053;-77
2021/11/22 03:48:08;;;;;;;0.73;0.45;;;;;;;2.68;100.00;101879.53;6225665;28;20420;-76
2021/11/22 03:51:10;;;;;;;0.43;0.40;;;;;;;2.60;100.00;101888.19;6224978;28;20138;-77
2021/11/22 03:54:12;;;;;;;0.57;0.43;;;;;;;2.62;100.00;101878.66;6225424;28;20504;-77
2021/11/22 03:57:14;;;;;;;2.47;0.55;;;;;;;2.58;100.00;101895.09;6224288;28;20053;-76
2021/11/22 04:00:16;;;;;;;0.63;0.63;;;;;;;2.46;100.00;101890.81;6224847;28;20077;-76
2021/11/22 04:03:17;;;;;;;0.38;0.35;;;;;;;2.40;100.00;101896.84;6224893;28;20053;-77
2021/11/22 04:06:20;;;;;;;0.50;0.50;;;;;;;2.41;100.00;101900.34;6225285;28;20054;-76
2021/11/22 04:09:21;;;;;;;0.88;0.63;;;;;;;2.38;100.00;101910.69;6222744;28;20052;-76
2021/11/22 04:12:23;;;;;;;2.00;0.55;;;;;;;2.37;100.00;101909.84;6224718;28;20065;-76
2021/11/22 04:15:24;;;;;;;0.45;0.40;;;;;;;2.44;100.00;101913.28;6224952;28;20047;-76
2021/11/22 04:18:25;;;;;;;1.23;0.73;;;;;;;2.43;100.00;101903.78;6211596;28;20646;-77
2021/11/22 04:21:28;;;;;;;2.55;0.52;;;;;;;2.42;100.00;101913.28;6200224;28;20053;-77
2021/11/22 04:24:29;;;;;;;0.40;0.30;;;;;;;2.38;100.00;101921.06;6205451;28;20038;-76
2021/11/22 04:27:31;;;;;;;2.00;0.80;;;;;;;2.36;100.00;101921.06;6222166;28;20048;-76
2021/11/22 04:30:33;;;;;;;1.00;0.60;;;;;;;2.39;100.00;101936.63;6210837;28;20049;-76
2021/11/22 04:33:36;;;;;;;0.68;0.40;;;;;;;2.36;100.00;101946.13;6221660;28;20135;-76
2021/11/22 04:36:39;;;;;;;0.95;0.40;;;;;;;2.31;100.00;101951.31;6224316;28;20049;-77
2021/11/22 04:39:40;;;;;;;3.80;0.52;;;;;;;2.31;100.00;101953.91;6224249;28;20060;-76
2021/11/22 04:42:45;;;;;;;0.52;0.52;;;;;;;2.26;100.00;101955.66;6224188;28;20045;-77
2021/11/22 04:45:46;;;;;;;0.98;0.50;;;;;;;2.20;100.00;101961.69;6224209;28;20501;-77
2021/11/22 04:48:48;;;;;;;2.70;0.75;;;;;;;2.22;100.00;101966.88;6224010;28;20061;-76
2021/11/22 04:51:51;;;;;;;0.68;0.55;;;;;;;2.16;100.00;101972.06;6223638;28;20056;-76
2021/11/22 04:54:52;;;;;;;1.52;1.00;;;;;;;2.16;100.00;101972.94;6207507;28;20053;-76
2021/11/22 04:57:54;;;;;;;1.27;0.80;;;;;;;2.12;100.00;101978.13;6208270;28;20497;-77
2021/11/22 05:00:56;;;;;;;1.23;0.80;;;;;;;2.09;100.00;101973.81;6199231;28;20425;-76
2021/11/22 05:03:57;;;;;;;1.17;0.98;;;;;;;2.15;100.00;101983.31;6199365;28;20138;-77
2021/11/22 05:07:00;;;;;;;0.93;0.57;;;;;;;2.06;100.00;101991.94;6199235;28;20421;-76
2021/11/22 05:10:01;;;;;;;3.13;0.57;;;;;;;2.09;100.00;101993.66;6199019;28;20054;-76
2021/11/22 05:13:04;;;;;;;0.95;0.60;;;;;;;2.06;100.00;102001.44;6199293;28;20050;-76
2021/11/22 05:16:06;;;;;;;1.50;1.02;;;;;;;2.05;100.00;102010.09;6203599;28;20041;-77
2021/11/22 05:19:07;;;;;;;1.40;0.57;;;;;;;2.02;100.00;102009.22;6210685;28;20054;-76
2021/11/22 05:22:12;;;;;;;1.15;0.70;;;;;;;1.95;100.00;102020.44;6220583;28;20054;-77
2021/11/22 05:25:14;;;;;;;0.85;0.63;;;;;;;1.90;100.00;102014.34;6223425;28;20511;-76
2021/11/22 05:28:15;;;;;;;2.67;0.98;;;;;;;1.90;100.00;102018.69;6222142;28;20042;-77
2021/11/22 05:31:17;;;;;;;2.45;0.75;;;;;;;1.85;100.00;102025.56;6222954;28;20524;-77
2021/11/22 05:34:19;;;;;;;0.73;0.60;;;;;;;1.85;100.00;102026.44;6223301;28;20049;-77
2021/11/22 05:37:22;;;;;;;0.75;0.45;;;;;;;1.83;100.00;102037.69;6223101;28;20574;-77
2021/11/22 05:40:24;;;;;;;1.15;0.85;;;;;;;1.81;100.00;102045.44;6222610;28;20389;-77
2021/11/22 05:43:26;;;;;;;2.05;0.90;;;;;;;1.83;100.00;102046.31;6222762;28;20051;-77
2021/11/22 05:46:27;;;;;;;0.85;0.80;;;;;;;1.81;100.00;102042.84;6223103;28;20052;-76
2021/11/22 05:49:32;;;;;;;1.75;1.10;;;;;;;1.82;100.00;102047.19;6222460;28;20057;-77
2021/11/22 05:52:37;;;;;;;1.25;0.88;;;;;;;1.79;100.00;102060.13;6222777;28;20057;-76
2021/11/22 05:55:39;;;;;;;1.63;0.98;;;;;;;1.75;100.00;102059.22;6224809;28;20067;-79
2021/11/22 05:58:41;;;;;;;1.45;1.15;;;;;;;1.71;100.00;102067.00;6223893;28;20045;-78
2021/11/22 06:01:42;;;;;;;1.30;1.02;;;;;;;1.65;100.00;102065.25;6221620;28;20416;-76
2021/11/22 06:04:43;;;;;;;2.05;1.10;;;;;;;1.72;100.00;102069.56;6217256;28;20133;-76
2021/11/22 06:07:46;;;;;;;1.55;1.08;;;;;;;1.74;100.00;102077.38;6215934;28;20045;-76
2021/11/22 06:10:49;;;;;;;2.17;1.05;;;;;;;1.72;100.00;102074.75;6222068;28;20061;-76
2021/11/22 06:13:51;;;;;;;2.17;1.05;;;;;;;1.72;100.00;102085.13;6221733;28;20132;-76
2021/11/22 06:16:52;;;;;;;2.50;1.05;;;;;;;1.71;100.00;102087.72;6221894;28;20437;-76
2021/11/22 06:19:54;;;;;;;2.00;1.23;;;;;;;1.68;100.00;102105.84;6213822;28;20060;-76
2021/11/22 06:22:57;;;;;;;2.63;1.33;;;;;;;1.68;100.00;102111.00;6222116;28;20155;-76
2021/11/22 06:25:58;;;;;;;3.72;1.52;;;;;;;1.62;100.00;102109.25;6221578;28;20045;-76
2021/11/22 06:29:00;;;;;;;2.22;1.23;;;;;;;1.64;100.00;102112.75;6216526;28;20053;-76
2021/11/22 06:32:01;;;;;;;2.45;1.75;;;;;;;1.68;100.00;102121.38;6218124;28;20050;-75
2021/11/22 06:35:04;;;;;;;3.03;1.58;;;;;;;1.70;100.00;102123.13;6225966;28;20038;-76
2021/11/22 06:38:07;;;;;;;4.40;1.58;;;;;;;1.66;100.00;102129.16;6219447;28;20053;-76
2021/11/22 06:41:09;;;;;;;2.20;1.17;;;;;;;1.67;100.00;102130.00;6215613;28;20042;-76
2021/11/22 06:44:10;;;;;;;3.33;1.65;;;;;;;1.66;100.00;102136.94;6212533;28;20523;-76
2021/11/22 06:47:12;;;;;;;2.60;2.20;;;;;;;1.63;100.00;102144.66;6210063;28;20421;-76
2021/11/22 06:50:13;;;;;;;8.45;1.58;;;;;;;1.64;100.00;102156.78;6212985;28;20414;-77
2021/11/22 06:53:21;;;;;;;2.83;1.58;;;;;;;1.60;100.00;102162.81;6223440;28;20042;-77
2021/11/22 06:56:22;;;;;;;1.42;1.27;;;;;;;1.51;100.00;102168.78;6208326;28;20047;-77
2021/11/22 06:59:23;;;;;;;1.58;1.05;;;;;;;1.52;100.00;102180.03;6201366;28;20065;-77
2021/11/22 07:02:25;;;;;;;2.92;1.67;;;;;;;1.55;100.00;102184.38;6201434;28;20421;-77
2021/11/22 07:05:26;;;;;;;2.75;1.63;;;;;;;1.50;100.00;102186.94;6200594;28;20482;-76
2021/11/22 07:08:29;;;;;;;4.70;2.38;;;;;;;1.44;100.00;102187.72;6201584;28;20054;-76
2021/11/22 07:11:30;;;;;;;4.22;1.38;;;;;;;1.48;100.00;102196.41;6201967;28;20065;-77
2021/11/22 07:14:32;;;;;;;4.18;1.92;;;;;;;1.53;100.00;102195.56;6201774;28;20049;-76
2021/11/22 07:17:33;;;;;;;2.50;1.42;;;;;;;1.56;100.00;102205.09;6202023;28;20050;-77
2021/11/22 07:20:35;;;;;;;3.00;1.60;;;;;;;1.56;100.00;102207.69;6201587;28;20065;-77
2021/11/22 07:23:37;;;;;;;2.45;1.67;;;;;;;1.56;100.00;102210.28;6202538;28;20054;-76
2021/11/22 07:26:39;;;;;;;4.13;2.47;;;;;;;1.58;100.00;102213.72;6202069;28;20050;-77
2021/11/22 07:29:42;;;;;;;2.50;1.70;;;;;;;1.57;100.00;102227.56;6203077;28;20091;-76
2021/11/22 07:32:43;;;;;;;4.13;2.22;;;;;;;1.58;100.00;102234.47;6202325;28;20086;-76
2021/11/22 07:35:45;;;;;;;2.97;1.55;;;;;;;1.62;100.00;102243.13;6220649;28;20057;-77
2021/11/22 07:38:48;;;;;;;3.90;1.65;;;;;;;1.65;100.00;102249.22;6202453;28;20057;-76
2021/11/22 07:41:51;;;;;;;3.00;1.58;;;;;;;1.66;100.00;102252.66;6207859;28;20088;-77
2021/11/22 07:44:52;;;;;;;3.88;2.17;;;;;;;1.64;100.00;102254.38;6202258;28;20050;-76
2021/11/22 07:47:54;;;;;;;1.70;1.33;;;;;;;1.68;100.00;102258.72;6201080;28;20053;-76
2021/11/22 07:50:56;;;;;;;3.83;2.08;;;;;;;1.71;100.00;102257.03;6200846;28;20058;-79
2021/11/22 07:53:58;;;;;;;3.33;2.30;;;;;;;1.68;100.00;102263.91;6211088;28;20516;-76
2021/11/22 07:57:00;;;;;;;4.38;2.40;;;;;;;1.65;100.00;102267.34;6217393;28;20058;-76
2021/11/22 08:00:02;;;;;;;2.53;1.70;;;;;;;1.72;100.00;102278.63;6201135;28;20065;-76
2021/11/22 08:03:04;;;;;;;4.68;1.50;;;;;;;1.77;100.00;102280.41;6200948;28;20057;-76
2021/11/22 08:06:05;;;;;;;2.72;1.75;;;;;;;1.75;100.00;102278.66;6208504;28;20068;-77
2021/11/22 08:09:13;;;;;;;3.42;2.22;;;;;;;1.75;100.00;102276.91;6224747;28;20057;-76
2021/11/22 08:12:25;;;;;;;1.98;1.33;;;;;;;1.76;100.00;102281.25;6224633;28;20082;-76
2021/11/22 08:15:29;;;;;;;3.95;2.28;;;;;;;1.78;100.00;102284.72;6229521;28;20184;-76
2021/11/22 08:18:31;;;;;;;2.90;1.60;;;;;;;1.85;100.00;102289.94;6224794;28;20050;-76
2021/11/22 08:21:34;;;;;;;4.05;1.77;;;;;;;1.86;100.00;102302.91;6225333;28;20050;-78
2021/11/22 08:24:37;;;;;;;3.20;1.70;;;;;;;1.88;100.00;102309.00;6225629;28;20050;-78
2021/11/22 08:27:38;;;;;;;4.22;2.05;;;;;;;1.90;100.00;102309.84;6224583;28;20057;-78
2021/11/22 08:30:40;;;;;;;1.98;1.65;;;;;;;1.92;100.00;102305.56;6225025;28;20061;-78
2021/11/22 08:33:41;;;;;;;3.90;1.63;;;;;;;1.97;100.00;102303.88;6226036;28;20057;-78
2021/11/22 08:36:43;;;;;;;3.83;2.33;;;;;;;2.02;100.00;102311.69;6225285;28;20053;-78
2021/11/22 08:39:46;;;;;;;3.30;1.80;;;;;;;2.06;100.00;102315.19;6224599;28;20053;-78
2021/11/22 08:42:48;;;;;;;4.45;2.22;;;;;;;2.04;100.00;102312.56;6224933;28;20046;-78
2021/11/22 08:45:49;;;;;;;3.13;2.20;;;;;;;2.07;100.00;102309.13;6224569;28;20049;-78
2021/11/22 08:48:51;;;;;;;11.48;2.13;;;;;;;2.09;100.00;102323.84;6224537;28;20058;-78
2021/11/22 08:51:53;;;;;;;3.38;1.98;;;;;;;2.16;100.00;102315.22;6223943;28;20054;-76
2021/11/22 08:54:56;;;;;;;4.57;2.28;;;;;;;2.23;100.00;102319.63;6223619;28;20065;-78
2021/11/22 08:57:57;;;;;;;2.97;2.00;;;;;;;2.25;100.00;102324.81;6223676;28;20457;-78
2021/11/22 09:00:59;;;;;;;1.33;1.20;;;;;;;2.27;100.00;102336.03;6223671;28;20524;-78
2021/11/22 09:04:00;;;;;;;2.90;2.33;;;;;;;2.29;100.00;102344.72;6224046;28;20053;-78
2021/11/22 09:07:01;;;;;;;4.15;2.20;;;;;;;2.31;100.00;102348.19;6223976;28;20041;-78
2021/11/22 09:10:06;;;;;;;4.45;2.55;;;;;;;2.35;100.00;102352.53;6224209;28;20054;-78
2021/11/22 09:13:07;;;;;;;3.00;2.05;;;;;;;2.39;100.00;102354.28;6224187;28;20053;-77
2021/11/22 09:16:09;;;;;;;3.00;1.58;;;;;;;2.44;100.00;102359.50;6224079;28;20049;-78
2021/11/22 09:19:10;;;;;;;3.42;2.22;;;;;;;2.44;100.00;102365.56;6228502;28;20081;-78
2021/11/22 09:22:12;;;;;;;3.53;1.80;;;;;;;2.51;100.00;102359.56;6231175;28;20057;-79
2021/11/22 09:25:15;;;;;;;2.80;1.77;;;;;;;2.53;100.00;102365.63;6225191;28;20042;-78
2021/11/22 09:28:16;;;;;;;1.80;1.55;;;;;;;2.54;100.00;102369.06;6222917;28;20104;-78
2021/11/22 09:31:17;;;;;;;5.90;2.35;;;;;;;2.59;100.00;102367.41;6223622;28;20076;-78
2021/11/22 09:34:19;;;;;;;2.97;1.88;;;;;;;2.64;100.00;102377.81;6224029;28;20050;-78
2021/11/22 09:37:20;;;;;;;2.83;1.85;;;;;;;2.68;100.00;102382.13;6223276;28;20097;-78
2021/11/22 09:40:23;;;;;;;4.13;2.10;;;;;;;2.74;100.00;102383.03;6223343;28;20424;-78
2021/11/22 09:43:24;;;;;;;4.32;2.40;;;;;;;2.79;100.00;102376.16;6223466;28;20057;-78
2021/11/22 09:46:26;;;;;;;6.75;1.88;;;;;;;2.82;100.00;102377.00;6223445;28;20054;-78
2021/11/22 09:49:28;;;;;;;5.65;2.20;;;;;;;2.87;100.00;102377.94;6223209;28;20056;-78
2021/11/22 09:52:30;;;;;;;1.98;1.73;;;;;;;2.94;100.00;102380.53;6223472;28;20054;-78
2021/11/22 09:55:35;;;;;;;5.00;2.58;;;;;;;2.99;100.00;102380.56;6223038;28;20069;-78
2021/11/22 09:58:36;;;;;;;6.00;2.75;;;;;;;3.02;100.00;102384.03;6221494;28;20069;-78
2021/11/22 10:01:39;;;;;;;3.17;1.55;;;;;;;3.04;100.00;102378.84;6222870;28;20050;-78
2021/11/22 10:04:41;;;;;;;3.17;1.73;;;;;;;3.13;100.00;102385.81;6222793;28;20249;-78
2021/11/22 10:07:42;;;;;;;2.70;1.45;;;;;;;3.21;100.00;102384.13;6222731;28;20517;-78
2021/11/22 10:10:47;;;;;;;3.65;2.17;;;;;;;3.30;100.00;102392.81;6222525;28;20050;-78
2021/11/22 10:13:48;;;;;;;5.70;2.28;;;;;;;3.36;100.00;102391.06;6222973;28;20056;-78
2021/11/22 10:16:49;;;;;;;4.43;2.80;;;;;;;3.42;100.00;102393.72;6222692;28;20049;-78
2021/11/22 10:20:11;;;;;;;3.47;1.63;;;;;;;3.52;100.00;102388.53;6222593;28;20058;-78
2021/11/22 10:23:13;;;;;;;4.78;1.92;;;;;;;3.61;100.00;102394.63;6222571;28;20057;-78
2021/11/22 10:26:17;;;;;;;6.35;2.17;;;;;;;3.67;100.00;102394.63;6222635;28;20049;-78
2021/11/22 10:29:22;;;;;;;4.97;2.05;;;;;;;3.73;100.00;102386.84;6221698;28;20054;-78
2021/11/22 10:32:33;;;;;;;3.20;1.70;;;;;;;3.84;100.00;102395.53;6222745;28;20057;-78
2021/11/22 10:35:37;;;;;;;3.50;1.73;;;;;;;3.90;100.00;102395.50;6222368;28;20137;-78
2021/11/22 10:38:40;;;;;;;3.75;2.28;;;;;;;4.02;100.00;102398.13;6222484;28;20050;-78
2021/11/22 10:41:43;;;;;;;2.53;1.52;;;;;;;4.04;100.00;102398.13;6222307;28;20050;-79
2021/11/22 10:44:55;;;;;;;2.03;1.40;;;;;;;4.17;100.00;102391.19;6222426;28;20144;-78
2021/11/22 10:48:11;;;;;;;8.90;1.83;;;;;;;4.24;100.00;102386.00;6222209;28;20053;-78
2021/11/22 10:51:15;;;;;;;3.22;1.85;;;;;;;4.44;100.00;102385.97;6222430;28;20049;-77
2021/11/22 10:54:19;;;;;;;1.50;1.30;;;;;;;4.56;100.00;102392.91;6218637;28;20050;-78
2021/11/22 10:57:22;;;;;;;4.13;1.95;;;;;;;4.69;100.00;102392.00;6209714;28;20501;-78
2021/11/22 11:00:28;;;;;;;3.53;1.65;;;;;;;4.80;100.00;102390.22;6206932;28;20050;-78
2021/11/22 11:03:29;;;;;;;2.25;1.25;;;;;;;5.02;100.00;102395.38;6206922;28;20125;-78
2021/11/22 11:06:40;;;;;;;8.57;1.95;;;;;;;5.22;100.00;102397.88;6207120;28;20046;-78
2021/11/22 11:09:52;;;;;;;6.28;1.40;;;;;;;5.33;100.00;102399.56;6206634;28;20069;-78
2021/11/22 11:12:56;;;;;;;3.92;1.63;;;;;;;5.44;100.00;102398.63;6206583;28;20050;-78
2021/11/22 11:16:06;;;;;;;3.55;1.50;;;;;;;5.55;100.00;102396.84;6197529;28;20062;-78
2021/11/22 11:19:09;;;;;;;4.60;2.15;;;;;;;5.43;100.00;102405.59;6200200;28;20445;-78
2021/11/22 11:22:11;;;;;;;2.25;1.02;;;;;;;5.31;100.00;102405.66;6201908;28;20057;-78
2021/11/22 11:25:14;;;;;;;5.38;1.45;;;;;;;5.06;100.00;102410.13;6201794;28;20058;-78
2021/11/22 11:28:16;;;;;;;1.95;0.98;;;;;;;5.03;100.00;102405.78;6202679;28;20414;-78
2021/11/22 11:31:18;;;;;;;1.08;0.98;;;;;;;5.03;100.00;102413.59;6201314;28;20050;-78
2021/11/22 11:34:19;;;;;;;2.30;1.15;;;;;;;5.11;100.00;102408.34;6201756;28;20137;-78
2021/11/22 11:37:38;;;;;;;1.52;1.00;;;;;;;5.29;100.00;102407.41;6201448;28;20433;-78
2021/11/22 11:40:57;;;;;;;1.67;1.20;;;;;;;5.46;100.00;102409.94;6208598;28;20050;-78
2021/11/22 11:44:12;;;;;;;2.25;0.82;;;;;;;5.60;100.00;102403.75;6213198;28;20061;-78
2021/11/22 11:47:30;;;;;;;0.82;0.60;;;;;;;5.73;100.00;102412.38;6203963;28;20417;-78
2021/11/22 11:50:35;;;;;;;1.55;0.75;;;;;;;5.75;100.00;102420.19;6201468;28;20541;-78
2021/11/22 11:53:37;;;;;;;2.33;1.27;;;;;;;5.85;100.00;102411.41;6201591;28;20065;-78
2021/11/22 11:56:44;;;;;;;1.33;0.90;;;;;;;5.95;100.00;102410.53;6201532;28;20104;-78
2021/11/22 11:59:47;;;;;;;0.98;0.77;;;;;;;5.92;100.00;102401.84;6202026;28;20148;-78
2021/11/22 12:02:59;;;;;;;1.25;0.75;;;;;;;6.01;100.00;102420.06;6201278;28;20409;-78
2021/11/22 12:06:01;;;;;;;2.50;0.55;;;;;;;6.18;100.00;102412.97;6201134;28;20417;-77
2021/11/22 12:09:28;;;;;;;0.75;0.70;;;;;;;6.28;100.00;102416.34;6201140;28;20153;-78
2021/11/22 12:12:34;;;;;;;0.70;0.60;;;;;;;6.17;98.47;102413.81;6200575;28;20429;-78
2021/11/22 12:15:43;;;;;;;1.42;0.80;;;;;;;6.01;98.80;102412.22;6200992;28;20058;-78
2021/11/22 12:18:44;;;;;;;0.85;0.75;;;;;;;5.89;100.00;102404.44;6200609;28;20058;-78
2021/11/22 12:21:46;;;;;;;2.55;0.63;;;;;;;5.72;100.00;102413.28;6216504;28;20050;-78
2021/11/22 12:24:48;;;;;;;0.63;0.63;;;;;;;5.63;100.00;102409.81;6224844;28;20050;-77
2021/11/22 12:27:49;;;;;;;4.65;2.10;;;;;;;5.56;100.00;102409.00;6225217;28;20053;-78
2021/11/22 12:30:53;;;;;;;4.80;0.77;;;;;;;5.53;100.00;102403.81;6223653;28;20083;-78
2021/11/22 12:34:01;;;;;;;1.60;0.98;;;;;;;5.44;100.00;102409.94;6225146;28;20061;-78
2021/11/22 12:37:22;;;;;;;0.73;0.57;;;;;;;5.41;100.00;102414.31;6224862;28;20528;-79
2021/11/22 12:40:25;;;;;;;0.98;0.65;;;;;;;5.34;100.00;102411.72;6224656;28;20076;-78
2021/11/22 12:43:38;;;;;;;1.52;0.95;;;;;;;5.34;100.00;102418.69;6224979;28;20132;-78
2021/11/22 12:46:47;;;;;;;0.98;0.63;;;;;;;5.31;100.00;102409.16;6224961;28;20409;-78
2021/11/22 12:49:49;;;;;;;;;;;;;;;5.26;100.00;102402.19;6224340;28;20057;-78
2021/11/22 12:53:14;;;;;;;0.55;0.50;;;;;;;5.21;100.00;102399.63;6226908;28;19928;-78
2021/11/22 12:56:15;;;;;;;2.65;1.15;;;;;;;5.23;100.00;102403.09;6221617;28;20046;-78
2021/11/22 12:59:19;;;;;;;1.67;0.65;;;;;;;5.25;100.00;102403.09;6226159;28;20053;-78
2021/11/22 13:02:41;;;;;;;1.20;0.80;;;;;;;5.22;100.00;102400.47;6221484;28;20076;-78
2021/11/22 13:05:46;;;;;;;1.95;1.00;;;;;;;5.21;100.00;102398.75;6220530;28;20524;-78
2021/11/22 13:08:52;;;;;;;1.25;0.70;;;;;;;5.23;99.88;102404.84;6225050;28;20057;-78
2021/11/22 13:11:56;;;;;;;2.30;0.73;;;;;;;5.25;99.23;102403.94;6223773;28;20045;-78
2021/11/22 13:15:03;;;;;;;2.70;0.75;;;;;;;5.26;100.00;102404.81;6223679;28;20061;-78
2021/11/22 13:18:06;;;;;;;1.48;0.95;;;;;;;5.24;100.00;102410.03;6224190;28;20046;-78
2021/11/22 13:21:12;;;;;;;0.98;0.63;;;;;;;5.29;100.00;102413.47;6213755;28;20050;-78
2021/11/22 13:24:16;;;;;;;0.57;0.32;;;;;;;5.26;100.00;102413.50;6199430;28;20061;-78
2021/11/22 13:27:17;;;;;;;6.20;0.57;;;;;;;5.28;100.00;102424.78;6199379;28;20047;-78
2021/11/22 13:30:18;;;;;;;1.27;0.77;;;;;;;5.33;100.00;102428.25;6198994;28;20069;-78
2021/11/22 13:33:22;;;;;;;4.35;1.27;;;;;;;5.37;100.00;102421.28;6199188;28;20530;-78
2021/11/22 13:36:33;;;;;;;2.80;0.68;;;;;;;5.43;100.00;102428.19;6198992;28;20421;-78
2021/11/22 13:39:37;;;;;;;0.80;0.52;;;;;;;5.32;99.99;102434.34;6199362;28;20061;-78
2021/11/22 13:42:38;;;;;;;0.82;0.75;;;;;;;5.29;100.00;102430.88;6198930;28;20090;-78
2021/11/22 13:45:41;;;;;;;1.40;0.70;;;;;;;5.29;100.00;102430.88;6198852;28;20054;-77
2021/11/22 13:48:54;;;;;;;5.72;1.00;;;;;;;5.25;100.00;102435.22;6199269;28;20046;-77
2021/11/22 13:51:56;;;;;;;1.45;0.73;;;;;;;5.25;100.00;102421.31;6219046;28;20520;-78
2021/11/22 13:54:58;;;;;;;1.40;0.63;;;;;;;5.32;95.70;102433.47;6223257;28;20059;-77
2021/11/22 13:58:05;;;;;;;4.15;1.02;;;;;;;5.46;96.25;102436.88;6223261;28;20203;-78
2021/11/22 14:01:06;;;;;;;2.78;0.85;;;;;;;5.46;95.38;102429.06;6222967;28;20493;-77
2021/11/22 14:04:09;;;;;;;0.73;0.63;;;;;;;5.45;95.08;102427.34;6223233;28;20045;-78
2021/11/22 14:07:13;;;;;;;0.50;0.47;;;;;;;5.39;95.77;102422.13;6223473;28;20516;-78
2021/11/22 14:10:15;;;;;;;1.35;0.70;;;;;;;5.33;94.91;102430.84;6223044;28;20501;-77
2021/11/22 14:13:19;;;;;;;0.35;0.35;;;;;;;5.28;97.55;102435.22;6223418;28;20060;-78